createdAt,value
2017-09-12T00:01:17.238Z,75.10
2017-09-12T00:03:44.046Z,74.90
2017-09-12T00:06:10.071Z,74.90
2017-09-12T00:08:36.123Z,75.10
2017-09-12T00:11:02.912Z,75.70
2017-09-12T00:13:28.946Z,75.10
2017-09-12T00:15:54.988Z,75.20
2017-09-12T00:18:21.067Z,75.00
2017-09-12T00:20:47.084Z,75.20
2017-09-12T00:23:13.122Z,75.20
2017-09-12T00:25:40.362Z,75.50
2017-09-12T00:28:06.381Z,75.90
2017-09-12T00:30:32.426Z,75.40
2017-09-12T00:32:58.498Z,75.50
2017-09-12T00:35:25.279Z,75.50
2017-09-12T00:37:51.319Z,75.40
2017-09-12T00:40:17.390Z,75.40
2017-09-12T00:42:44.174Z,75.60
2017-09-12T00:45:10.229Z,75.60
2017-09-12T00:47:36.289Z,75.80
2017-09-12T00:50:02.338Z,76.20
2017-09-12T00:52:29.190Z,76.40
2017-09-12T00:54:55.247Z,76.20
2017-09-12T00:57:22.031Z,76.70
2017-09-12T00:59:48.088Z,76.70
2017-09-12T01:02:14.874Z,77.40
2017-09-12T01:04:40.939Z,77.40
2017-09-12T01:07:06.970Z,77.50
2017-09-12T01:09:33.063Z,77.40
2017-09-12T01:11:59.137Z,77.50
2017-09-12T01:14:25.950Z,77.60
2017-09-12T01:16:52.004Z,77.50
2017-09-12T01:19:18.770Z,77.40
2017-09-12T01:21:44.803Z,77.40
2017-09-12T01:24:10.852Z,77.50
2017-09-12T01:26:36.887Z,78.00
2017-09-12T01:29:02.911Z,78.20
2017-09-12T01:31:29.935Z,79.30
2017-09-12T01:33:55.970Z,78.60
2017-09-12T01:36:22.003Z,78.10
2017-09-12T01:38:48.782Z,78.50
2017-09-12T01:41:14.820Z,78.50
2017-09-12T01:43:40.906Z,78.80
2017-09-12T01:46:06.944Z,79.10
2017-09-12T01:48:33.003Z,78.50
2017-09-12T01:50:59.089Z,78.20
2017-09-12T01:53:25.128Z,78.40
2017-09-12T01:55:51.155Z,78.30
2017-09-12T01:58:17.461Z,78.30
2017-09-12T02:00:43.486Z,78.10
2017-09-12T02:03:09.515Z,78.20
2017-09-12T02:05:35.939Z,78.90
2017-09-12T02:08:01.983Z,78.00
2017-09-12T02:10:28.018Z,77.60
2017-09-12T02:12:54.084Z,77.70
2017-09-12T02:15:20.839Z,77.70
2017-09-12T02:17:46.883Z,77.70
2017-09-12T02:20:12.955Z,77.30
2017-09-12T02:22:39.774Z,76.90
2017-09-12T02:25:05.797Z,76.90
2017-09-12T02:27:32.078Z,77.00
2017-09-12T02:29:58.106Z,76.70
2017-09-12T02:32:24.168Z,76.60
2017-09-12T02:34:50.208Z,76.70
2017-09-12T02:37:17.283Z,76.90
2017-09-12T02:39:43.304Z,76.90
2017-09-12T02:42:09.316Z,76.70
2017-09-12T02:44:35.346Z,77.30
2017-09-12T02:47:01.368Z,76.40
2017-09-12T02:49:27.411Z,76.60
2017-09-12T02:51:53.463Z,76.60
2017-09-12T02:54:19.491Z,76.90
2017-09-12T02:56:45.526Z,76.70
2017-09-12T02:59:12.310Z,77.00
2017-09-12T03:01:38.343Z,77.00
2017-09-12T03:04:04.367Z,76.90
2017-09-12T03:06:30.423Z,76.90
2017-09-12T03:08:56.458Z,77.10
2017-09-12T03:11:23.222Z,77.10
2017-09-12T03:13:49.267Z,77.10
2017-09-12T03:16:15.290Z,77.00
2017-09-12T03:18:41.307Z,77.40
2017-09-12T03:21:07.331Z,77.50
2017-09-12T03:23:33.362Z,77.40
2017-09-12T03:25:59.383Z,77.50
2017-09-12T03:28:25.432Z,77.50
2017-09-12T03:30:51.463Z,77.50
2017-09-12T03:33:18.245Z,77.50
2017-09-12T03:35:44.349Z,77.50
2017-09-12T03:38:11.107Z,78.00
2017-09-12T03:40:37.147Z,78.00
2017-09-12T03:43:03.204Z,78.20
2017-09-12T03:45:29.968Z,77.80
2017-09-12T03:47:56.009Z,77.80
2017-09-12T03:50:22.390Z,78.40
2017-09-12T03:52:49.166Z,78.70
2017-09-12T03:55:15.210Z,78.70
2017-09-12T03:57:41.243Z,79.00
2017-09-12T04:00:07.266Z,78.80
2017-09-12T04:02:33.310Z,78.60
2017-09-12T04:04:59.382Z,78.50
2017-09-12T04:07:25.402Z,79.40
2017-09-12T04:09:51.439Z,79.10
2017-09-12T04:12:17.501Z,78.80
2017-09-12T04:14:43.522Z,78.60
2017-09-12T04:17:09.543Z,78.60
2017-09-12T04:19:35.911Z,78.40
2017-09-12T04:22:01.939Z,78.30
2017-09-12T04:24:27.970Z,78.40
2017-09-12T04:26:54.283Z,78.40
2017-09-12T04:29:20.322Z,78.70
2017-09-12T04:31:46.350Z,78.60
2017-09-12T04:34:12.433Z,78.80
2017-09-12T04:36:38.470Z,78.60
2017-09-12T04:39:04.505Z,79.40
2017-09-12T04:41:30.555Z,79.70
2017-09-12T04:43:56.610Z,79.50
2017-09-12T04:46:23.374Z,79.50
2017-09-12T04:48:49.704Z,79.30
2017-09-12T04:51:15.756Z,79.50
2017-09-12T04:53:41.815Z,79.80
2017-09-12T04:56:08.608Z,79.70
2017-09-12T04:58:34.634Z,79.60
2017-09-12T05:01:00.671Z,79.80
2017-09-12T05:03:26.979Z,80.30
2017-09-12T05:05:53.006Z,80.20
2017-09-12T05:08:19.062Z,79.80
2017-09-12T05:10:45.335Z,80.10
2017-09-12T05:13:11.382Z,80.90
2017-09-12T05:15:37.494Z,79.80
2017-09-12T05:18:03.563Z,79.90
2017-09-12T05:20:30.323Z,80.80
2017-09-12T05:22:56.346Z,81.40
2017-09-12T05:25:22.454Z,80.70
2017-09-12T05:27:49.217Z,80.30
2017-09-12T05:30:15.242Z,80.40
2017-09-12T05:32:41.331Z,80.40
2017-09-12T05:35:08.121Z,80.70
2017-09-12T05:37:34.144Z,80.70
2017-09-12T05:40:00.451Z,80.60
2017-09-12T05:42:26.482Z,80.70
2017-09-12T05:44:52.507Z,80.80
2017-09-12T05:47:18.566Z,80.50
2017-09-12T05:49:44.628Z,80.40
2017-09-12T05:52:10.643Z,80.30
2017-09-12T05:54:36.702Z,80.40
2017-09-12T05:57:02.863Z,80.40
2017-09-12T05:59:28.906Z,80.40
2017-09-12T06:01:55.750Z,80.30
2017-09-12T06:04:22.527Z,80.70
2017-09-12T06:06:48.572Z,80.70
2017-09-12T06:09:14.638Z,80.90
2017-09-12T06:11:47.911Z,81.00
2017-09-12T06:14:14.724Z,80.60
2017-09-12T06:16:40.750Z,80.60
2017-09-12T06:19:06.768Z,81.10
2017-09-12T06:21:32.819Z,80.80
2017-09-12T06:23:59.591Z,81.10
2017-09-12T06:26:25.610Z,81.00
2017-09-12T06:28:51.667Z,80.70
2017-09-12T06:31:17.751Z,80.80
2017-09-12T06:33:43.818Z,80.90
2017-09-12T06:36:09.931Z,80.70
2017-09-12T06:38:35.982Z,81.00
2017-09-12T06:41:02.006Z,81.50
2017-09-12T06:43:28.997Z,81.40
2017-09-12T06:45:55.067Z,81.40
2017-09-12T06:48:21.138Z,81.20
2017-09-12T06:50:47.463Z,81.60
2017-09-12T06:53:13.510Z,81.60
2017-09-12T06:55:39.563Z,81.40
2017-09-12T06:58:06.666Z,81.30
2017-09-12T07:00:32.712Z,81.40
2017-09-12T07:02:58.755Z,81.20
2017-09-12T07:05:25.741Z,82.40
2017-09-12T07:07:51.759Z,82.40
2017-09-12T07:10:17.789Z,82.50
2017-09-12T07:12:43.843Z,82.30
2017-09-12T07:15:09.977Z,82.60
2017-09-12T07:17:36.012Z,82.60
2017-09-12T07:20:03.711Z,82.60
2017-09-12T07:22:29.738Z,82.60
2017-09-12T07:24:55.774Z,82.70
2017-09-12T07:27:22.080Z,83.20
2017-09-12T07:29:48.114Z,83.20
2017-09-12T07:32:14.159Z,83.40
2017-09-12T07:34:40.219Z,83.20
2017-09-12T07:37:06.980Z,82.90
2017-09-12T07:39:33.022Z,82.90
2017-09-12T07:41:59.433Z,82.50
2017-09-12T07:44:25.471Z,82.90
2017-09-12T07:46:51.560Z,82.70
2017-09-12T07:49:18.355Z,83.10
2017-09-12T07:51:44.394Z,83.00
2017-09-12T07:54:10.430Z,82.90
2017-09-12T07:56:37.213Z,82.80
2017-09-12T07:59:03.248Z,82.60
2017-09-12T08:01:29.312Z,82.80
2017-09-12T08:03:56.087Z,82.50
2017-09-12T08:06:22.106Z,82.50
2017-09-12T08:08:48.200Z,82.60
2017-09-12T08:11:14.982Z,82.10
2017-09-12T08:13:41.059Z,82.10
2017-09-12T08:16:07.858Z,85.70
2017-09-12T08:18:34.846Z,85.60
2017-09-12T08:21:01.623Z,87.10
2017-09-12T08:23:27.687Z,87.20
2017-09-12T08:25:53.723Z,87.90
2017-09-12T08:28:20.493Z,87.60
2017-09-12T08:30:46.823Z,87.50
2017-09-12T08:33:12.853Z,87.10
2017-09-12T08:35:38.881Z,86.50
2017-09-12T08:38:04.976Z,87.50
2017-09-12T08:40:31.015Z,87.40
2017-09-12T08:42:57.053Z,87.80
2017-09-12T08:45:23.123Z,86.70
2017-09-12T08:47:49.905Z,87.70
2017-09-12T08:50:15.982Z,87.60
2017-09-12T08:52:42.792Z,87.50
2017-09-12T08:55:08.822Z,87.60
2017-09-12T08:57:34.858Z,88.00
2017-09-12T09:00:01.234Z,90.00
2017-09-12T09:02:27.254Z,90.30
2017-09-12T09:04:53.294Z,90.60
2017-09-12T09:07:19.351Z,90.80
2017-09-12T09:09:45.378Z,91.20
2017-09-12T09:12:12.156Z,91.20
2017-09-12T09:14:45.275Z,91.20
2017-09-12T09:17:11.323Z,91.30
2017-09-12T09:19:38.110Z,90.80
2017-09-12T09:22:04.159Z,90.80
2017-09-12T09:24:30.183Z,91.00
2017-09-12T09:26:56.203Z,90.60
2017-09-12T09:29:22.259Z,90.20
2017-09-12T09:31:49.025Z,89.70
2017-09-12T09:34:15.433Z,89.70
2017-09-12T09:36:42.228Z,87.80
2017-09-12T09:39:08.270Z,87.80
2017-09-12T09:41:35.812Z,86.50
2017-09-12T09:44:02.005Z,86.50
2017-09-12T09:46:28.193Z,84.70
2017-09-12T09:48:54.982Z,87.80
2017-09-12T09:51:21.306Z,87.80
2017-09-12T09:53:47.338Z,88.20
2017-09-12T09:56:13.364Z,88.70
2017-09-12T09:58:39.773Z,88.50
2017-09-12T10:01:06.621Z,88.30
2017-09-12T10:03:32.651Z,87.80
2017-09-12T10:05:58.878Z,87.80
2017-09-12T10:08:24.908Z,87.90
2017-09-12T10:10:50.951Z,85.80
2017-09-12T10:13:17.256Z,82.50
2017-09-12T10:15:43.299Z,78.00
2017-09-12T10:18:09.330Z,74.70
2017-09-12T10:20:36.136Z,67.80
2017-09-12T10:23:02.163Z,67.80
2017-09-12T10:25:28.198Z,66.10
2017-09-12T10:27:54.254Z,65.80
2017-09-12T10:30:21.023Z,68.90
2017-09-12T10:32:47.060Z,68.90
2017-09-12T10:35:13.157Z,69.60
2017-09-12T10:37:39.197Z,70.20
2017-09-12T10:40:05.294Z,70.80
2017-09-12T10:42:31.331Z,71.00
2017-09-12T10:44:57.375Z,72.90
2017-09-12T10:47:23.784Z,73.10
2017-09-12T10:49:49.823Z,75.10
2017-09-12T10:52:15.858Z,74.90
2017-09-12T10:54:41.927Z,75.10
2017-09-12T10:57:07.955Z,73.20
2017-09-12T10:59:33.970Z,72.50
2017-09-12T11:01:59.999Z,71.80
2017-09-12T11:04:26.025Z,72.20
2017-09-12T11:06:52.055Z,73.50
2017-09-12T11:09:18.098Z,73.90
2017-09-12T11:11:44.135Z,74.30
2017-09-12T11:14:10.163Z,74.20
2017-09-12T11:16:36.216Z,76.30
2017-09-12T11:19:03.001Z,78.70
2017-09-12T11:21:29.059Z,78.70
2017-09-12T11:23:55.382Z,79.20
2017-09-12T11:26:21.414Z,80.30
2017-09-12T11:28:48.174Z,77.50
2017-09-12T11:31:14.215Z,77.40
2017-09-12T11:33:40.235Z,78.80
2017-09-12T11:36:06.258Z,76.80
2017-09-12T11:38:32.306Z,76.60
2017-09-12T11:40:59.134Z,75.50
2017-09-12T11:43:25.726Z,76.60
2017-09-12T11:45:52.511Z,75.20
2017-09-12T11:48:18.658Z,75.30
2017-09-12T11:50:44.682Z,75.20
2017-09-12T11:53:11.802Z,74.90
2017-09-12T11:55:37.862Z,75.40
2017-09-12T11:58:04.643Z,73.50
2017-09-12T12:00:30.954Z,73.40
2017-09-12T12:02:56.975Z,74.00
2017-09-12T12:05:22.996Z,72.10
2017-09-12T12:07:49.030Z,72.20
2017-09-12T12:10:15.062Z,70.90
2017-09-12T12:12:41.106Z,71.10
2017-09-12T12:15:07.194Z,68.40
2017-09-12T12:17:33.234Z,65.70
2017-09-12T12:19:59.274Z,65.30
2017-09-12T12:22:25.341Z,65.70
2017-09-12T12:24:52.102Z,67.50
2017-09-12T12:27:18.119Z,67.50
2017-09-12T12:29:44.550Z,67.50
2017-09-12T12:32:10.557Z,68.40
2017-09-12T12:34:37.311Z,69.40
2017-09-12T12:37:03.336Z,69.40
2017-09-12T12:39:29.353Z,70.30
2017-09-12T12:41:55.382Z,72.10
2017-09-12T12:44:21.434Z,72.90
2017-09-12T12:46:47.457Z,72.80
2017-09-12T12:49:13.534Z,71.70
2017-09-12T12:51:39.578Z,72.30
2017-09-12T12:54:05.623Z,69.80
2017-09-12T12:56:31.673Z,67.00
2017-09-12T12:58:58.731Z,65.20
2017-09-12T13:01:25.484Z,65.60
2017-09-12T13:03:51.505Z,65.60
2017-09-12T13:06:17.531Z,64.40
2017-09-12T13:08:43.552Z,65.30
2017-09-12T13:11:10.522Z,65.80
2017-09-12T13:13:36.545Z,66.70
2017-09-12T13:16:02.584Z,66.90
2017-09-12T13:18:28.650Z,67.50
2017-09-12T13:20:54.670Z,67.90
2017-09-12T13:23:20.722Z,68.40
2017-09-12T13:25:46.770Z,67.30
2017-09-12T13:28:12.778Z,69.00
2017-09-12T13:30:38.791Z,69.90
2017-09-12T13:33:04.931Z,69.00
2017-09-12T13:35:37.893Z,69.20
2017-09-12T13:38:03.902Z,69.60
2017-09-12T13:40:30.134Z,65.40
2017-09-12T13:42:56.143Z,65.90
2017-09-12T13:45:22.165Z,66.90
2017-09-12T13:47:48.493Z,66.30
2017-09-12T13:50:14.517Z,66.20
2017-09-12T13:52:40.544Z,65.30
2017-09-12T13:55:06.575Z,66.20
2017-09-12T13:57:32.584Z,67.10
2017-09-12T13:59:58.631Z,69.40
2017-09-12T14:02:24.702Z,69.80
2017-09-12T14:04:51.461Z,69.60
2017-09-12T14:07:17.499Z,69.60
2017-09-12T14:09:43.506Z,70.60
2017-09-12T14:12:10.200Z,71.00
2017-09-12T14:14:36.239Z,72.00
2017-09-12T14:17:03.020Z,72.70
2017-09-12T14:19:29.065Z,72.70
2017-09-12T14:21:55.136Z,73.40
2017-09-12T14:24:21.150Z,71.70
2017-09-12T14:26:47.930Z,71.30
2017-09-12T14:29:13.977Z,71.20
2017-09-12T14:31:41.474Z,71.10
2017-09-12T14:34:07.511Z,71.60
2017-09-12T14:36:33.714Z,70.40
2017-09-12T14:39:00.475Z,68.90
2017-09-12T14:41:26.479Z,69.00
2017-09-12T14:43:52.717Z,70.40
2017-09-12T14:46:18.726Z,70.70
2017-09-12T14:48:44.755Z,70.30
2017-09-12T14:51:11.092Z,69.50
2017-09-12T14:53:37.123Z,68.40
2017-09-12T14:56:03.145Z,68.80
2017-09-12T14:58:29.155Z,69.10
2017-09-12T15:00:55.175Z,68.40
2017-09-12T15:03:21.227Z,69.00
2017-09-12T15:05:47.258Z,68.70
2017-09-12T15:08:13.299Z,68.90
2017-09-12T15:10:39.367Z,69.10
2017-09-12T15:13:05.394Z,69.80
2017-09-12T15:15:31.423Z,69.30
2017-09-12T15:17:57.627Z,69.80
2017-09-12T15:20:23.651Z,70.10
2017-09-12T15:22:49.683Z,69.50
2017-09-12T15:25:15.891Z,69.80
2017-09-12T15:27:41.906Z,69.00
2017-09-12T15:30:07.919Z,69.60
2017-09-12T15:32:34.681Z,70.20
2017-09-12T15:35:00.707Z,70.20
2017-09-12T15:37:26.726Z,69.00
2017-09-12T15:39:53.142Z,67.60
2017-09-12T15:42:19.154Z,66.80
2017-09-12T15:44:45.909Z,67.50
2017-09-12T15:47:11.956Z,67.50
2017-09-12T15:49:37.968Z,67.90
2017-09-12T15:52:04.008Z,68.60
2017-09-12T15:54:30.101Z,68.60
2017-09-12T15:56:56.123Z,69.00
2017-09-12T15:59:22.136Z,68.50
2017-09-12T16:01:48.161Z,68.20
2017-09-12T16:04:21.267Z,68.70
2017-09-12T16:06:47.309Z,68.30
2017-09-12T16:09:13.368Z,68.70
2017-09-12T16:11:40.134Z,63.10
2017-09-12T16:14:06.170Z,63.10
2017-09-12T16:16:32.195Z,62.30
2017-09-12T16:18:58.213Z,60.90
2017-09-12T16:21:24.253Z,61.30
2017-09-12T16:23:50.294Z,62.30
2017-09-12T16:26:16.338Z,64.20
2017-09-12T16:28:43.106Z,66.90
2017-09-12T16:31:09.298Z,66.90
2017-09-12T16:33:36.071Z,66.90
2017-09-12T16:36:02.107Z,67.00
2017-09-12T16:38:28.315Z,67.80
2017-09-12T16:40:54.346Z,68.00
2017-09-12T16:43:20.370Z,68.00
2017-09-12T16:45:46.394Z,68.80
2017-09-12T16:48:12.431Z,69.40
2017-09-12T16:50:38.627Z,69.70
2017-09-12T16:53:04.645Z,69.70
2017-09-12T16:55:30.665Z,70.20
2017-09-12T16:57:56.707Z,70.60
2017-09-12T17:00:22.728Z,71.00
2017-09-12T17:02:48.765Z,71.80
2017-09-12T17:05:14.946Z,72.30
2017-09-12T17:07:40.979Z,72.90
2017-09-12T17:10:06.998Z,73.20
2017-09-12T17:12:33.151Z,73.60
2017-09-12T17:14:59.191Z,73.50
2017-09-12T17:17:25.233Z,73.60
2017-09-12T17:19:52.198Z,73.40
2017-09-12T17:22:18.248Z,73.40
2017-09-12T17:24:44.262Z,74.00
2017-09-12T17:27:10.478Z,74.20
2017-09-12T17:29:36.519Z,74.60
2017-09-12T17:32:02.539Z,74.20
2017-09-12T17:34:28.856Z,74.10
2017-09-12T17:36:54.877Z,74.70
2017-09-12T17:39:20.910Z,75.00
2017-09-12T17:41:46.938Z,74.80
2017-09-12T17:44:12.979Z,74.70
2017-09-12T17:46:40.186Z,75.60
2017-09-12T17:49:06.208Z,75.60
2017-09-12T17:51:32.302Z,75.90
2017-09-12T17:53:59.131Z,76.10
2017-09-12T17:56:25.242Z,76.00
2017-09-12T17:58:51.280Z,76.20
2017-09-12T18:01:18.310Z,76.20
2017-09-12T18:03:44.338Z,76.20
2017-09-12T18:06:10.355Z,76.80
2017-09-12T18:08:36.487Z,76.90
2017-09-12T18:11:02.539Z,76.40
2017-09-12T18:13:28.570Z,76.60
2017-09-12T18:15:54.789Z,76.70
2017-09-12T18:18:20.820Z,76.80
2017-09-12T18:20:46.846Z,77.70
2017-09-12T18:23:13.268Z,76.90
2017-09-12T18:25:39.296Z,77.10
2017-09-12T18:28:05.327Z,77.80
2017-09-12T18:30:31.453Z,78.20
2017-09-12T18:32:57.507Z,78.70
2017-09-12T18:35:23.564Z,77.80
2017-09-12T18:37:50.555Z,78.40
2017-09-12T18:40:16.571Z,78.20
2017-09-12T18:42:42.623Z,78.00
2017-09-12T18:45:08.841Z,78.30
2017-09-12T18:47:34.992Z,79.10
2017-09-12T18:50:01.807Z,78.40
2017-09-12T18:52:28.091Z,78.40
2017-09-12T18:54:54.179Z,78.40
2017-09-12T18:57:21.040Z,78.60
2017-09-12T18:59:47.134Z,78.60
2017-09-12T19:02:13.207Z,78.80
2017-09-12T19:04:39.259Z,79.00
2017-09-12T19:07:05.361Z,78.20
2017-09-12T19:09:31.500Z,77.30
2017-09-12T19:11:57.560Z,77.50
2017-09-12T19:14:24.373Z,78.10
2017-09-12T19:16:50.436Z,78.10
2017-09-12T19:19:16.480Z,78.10
2017-09-12T19:21:42.859Z,77.90
2017-09-12T19:24:09.661Z,78.20
2017-09-12T19:26:35.814Z,78.10
2017-09-12T19:29:01.940Z,78.50
2017-09-12T19:31:28.015Z,78.60
2017-09-12T19:33:54.152Z,78.50
2017-09-12T19:36:20.513Z,78.80
2017-09-12T19:38:46.631Z,79.30
2017-09-12T19:41:12.708Z,79.30
2017-09-12T19:43:38.861Z,79.70
2017-09-12T19:46:05.198Z,80.00
2017-09-12T19:48:31.227Z,79.90
2017-09-12T19:51:00.041Z,80.20
2017-09-12T19:53:26.941Z,80.60
2017-09-12T19:55:53.134Z,80.50
2017-09-12T19:58:19.306Z,81.20
2017-09-12T20:00:46.177Z,80.50
2017-09-12T20:03:13.390Z,81.00
2017-09-12T20:05:39.611Z,81.00
2017-09-12T20:08:06.056Z,80.90
2017-09-12T20:10:33.033Z,81.50
2017-09-12T20:13:00.022Z,81.10
2017-09-12T20:15:26.475Z,81.00
2017-09-12T20:17:52.891Z,81.20
2017-09-12T20:20:19.150Z,81.10
2017-09-12T20:22:45.394Z,81.40
2017-09-12T20:25:12.453Z,81.50
2017-09-12T20:27:40.301Z,81.50
2017-09-12T20:30:07.275Z,81.20
2017-09-12T20:32:33.767Z,81.20
2017-09-12T20:35:00.854Z,81.00
2017-09-12T20:37:27.057Z,81.00
2017-09-12T20:39:54.149Z,80.90
2017-09-12T20:42:20.332Z,80.90
2017-09-12T20:44:46.523Z,81.10
2017-09-12T20:47:12.645Z,81.70
2017-09-12T20:52:18.324Z,81.00
2017-09-12T20:54:45.181Z,81.50
2017-09-12T20:57:12.077Z,81.60
2017-09-12T20:59:38.227Z,81.60
2017-09-12T21:02:05.074Z,81.90
2017-09-12T21:04:32.023Z,81.80
2017-09-12T21:06:58.897Z,82.00
2017-09-12T21:09:25.204Z,82.00
2017-09-12T21:11:51.349Z,82.10
2017-09-12T21:14:17.448Z,81.80
2017-09-12T21:16:44.546Z,82.20
2017-09-12T21:19:10.642Z,82.20
2017-09-12T21:21:36.872Z,82.20
2017-09-12T21:24:03.189Z,83.20
2017-09-12T21:26:29.348Z,82.40
2017-09-12T21:28:56.041Z,82.10
2017-09-12T21:31:22.225Z,82.10
2017-09-12T21:33:48.401Z,82.20
2017-09-12T21:36:14.561Z,82.30
2017-09-12T21:38:40.782Z,82.50
2017-09-12T21:41:07.225Z,82.40
2017-09-12T21:43:33.612Z,82.30
2017-09-12T21:45:59.783Z,82.10
2017-09-12T21:48:25.957Z,82.00
2017-09-12T21:50:52.095Z,82.10
2017-09-12T21:53:18.257Z,82.00
2017-09-12T21:55:44.408Z,81.80
2017-09-12T21:58:11.364Z,82.50
2017-09-12T22:00:37.553Z,82.50
2017-09-12T22:03:03.744Z,82.30
2017-09-12T22:05:29.895Z,82.10
2017-09-12T22:07:56.093Z,82.20
2017-09-12T22:10:22.212Z,82.00
2017-09-12T22:12:48.582Z,81.80
2017-09-12T22:15:14.709Z,81.70
2017-09-12T22:17:41.599Z,82.40
2017-09-12T22:20:07.955Z,82.30
2017-09-12T22:22:34.154Z,83.10
2017-09-12T22:25:00.350Z,82.20
2017-09-12T22:27:27.843Z,82.70
2017-09-12T22:29:53.957Z,82.70
2017-09-12T22:32:20.192Z,83.20
2017-09-12T22:34:46.322Z,83.00
2017-09-12T22:37:12.465Z,82.80
2017-09-12T22:39:38.869Z,82.70
2017-09-12T22:42:04.971Z,82.90
2017-09-12T22:44:31.065Z,83.10
2017-09-12T22:46:57.172Z,83.30
2017-09-12T22:49:23.332Z,83.60
2017-09-12T22:51:50.281Z,83.50
2017-09-12T22:54:17.158Z,83.80
2017-09-12T22:56:43.257Z,83.80
2017-09-12T22:59:09.422Z,83.90
2017-09-12T23:01:35.849Z,83.40
2017-09-12T23:04:02.025Z,83.00
2017-09-12T23:06:29.015Z,83.30
2017-09-12T23:08:55.139Z,83.20
2017-09-12T23:11:21.255Z,84.10
2017-09-12T23:13:47.385Z,83.60
2017-09-12T23:16:13.690Z,83.70
2017-09-12T23:18:39.712Z,84.30
2017-09-12T23:21:05.733Z,83.50
2017-09-12T23:23:32.060Z,84.40
2017-09-12T23:25:58.100Z,83.60
2017-09-12T23:28:24.123Z,83.70
2017-09-12T23:30:50.235Z,83.30
2017-09-12T23:33:16.258Z,83.10
2017-09-12T23:35:42.278Z,82.90
2017-09-12T23:38:08.516Z,82.80
2017-09-12T23:40:34.529Z,83.00
2017-09-12T23:43:00.559Z,83.20
2017-09-12T23:45:26.622Z,82.90
2017-09-12T23:47:52.638Z,82.40
2017-09-12T23:50:18.642Z,83.20
2017-09-12T23:52:44.682Z,82.40
2017-09-12T23:55:10.701Z,82.30
2017-09-12T23:57:37.462Z,82.10
